A- A+ FrançaisEnglishEspañol中国

最近的 SEII Isla IsabelaLFMC Le-Luc-Le-CannetEETN Tallinn UlemisteLSMA AlpnachLFBT Tarbes-Lourdes-PyrénéesLFCQ Graulhet-Montdragon

飞行员的航空天气,使用METAR(气象机场报告)进行的飞行准备和TAF(终端机场预报:针对以下情况的短期天气预报)航空)。 以及其他资源,例如VAC(目视进近图)和NOTAM(通知飞行员)以进行预试飞行.

METAR, TAF, VAC, NOTAM Cape Dorset机场 (加拿大) / OACI CYTE/ IATA YTE

它位于附近 Cape Dorset (加拿大) 可提供5天天气预报 Cape Dorset 在 0.9 km, Ivujivik 在 213 km,

机场的高度为 Cape Dorset机场的

50 m = 164 ft

附近的机场 Cape Dorset机场的

跑道 Cape Dorset机场的

METAR Cape Dorset机场的 - CYTE

CYTE 220700Z AUTO 27004KT 9SM CLR M18/M20 A3001 RMK SLP171

Cape Dorset机场METAR解码 (加拿大)

CYTE机场发行的METAR日期2020年04月22日至07:00 GMT. 这是一个自动生成的METAR, 警告:此METAR已过期, 已于 39 天 6 小时 11 分钟.

可见度为14.5 km = 9 sm.

温度为-18°C = -0 °F 露点为-20°C = -4 °F 。 这相当于84%的相对湿度。.

QNH是1016 hPa = 30 inHg

的风4 kt = 7 km/h, 风向为270°.

天空晴朗

备注 SLP171

TAF Cape Dorset机场的 - CYTE

CYTE 220638Z 2207/2219 VRB03KT P6SM SKC RMK FCST BASED ON AUTO OBS. NXT FCST BY 221300Z

Cape Dorset机场TAF解码 (加拿大)

CYTE机场发行的TAF日期2020年04月22日至06:38 GMT 警告:此TAF已过期, 已于 39 天 6 小时 33 分钟.

du mercredi 22 avril 2020 à 07:00 heure TU au mercredi 22 avril 2020 à 19:00 heure TU

的风3 kt = 6 km/h, 风向为°.

Cape Dorset视觉方法图 - CYTE

所提供的视觉方法图(VAC视觉方法图)不保证其及时性。 在将其用于飞行准备或在飞行期间使用之前,飞行员是唯一负责验证其有效性的人员。.

Cape Dorset机场的NOTAM

提供的NOTAM不能保证其时事性。 在将其用于飞行准备或在飞行期间使用之前,飞行员是唯一负责验证其有效性的人员。

没有通知

数据源